National Weather Service United States Department of Commerce

High Fire Danger In Parts Of The Southwest U.S. On Thursday

Strong winds and very low humidity will create dangerous fire weather conditions in parts of the Desert Southwest and southern High Plains on Thursday. Any fires that ignite could rapidly grow out of control in this region. Fire Weather Watches and Red Flag Warnings are in effect for these areas. Read More >

 

 

 

Daily Weather Briefing
Prepared: 5/25/2017 12:30 PM by: WN valid for 9 hours
FOR ATC PLANNING PURPOSES
High pressure will build in from the west as a low pressure system moves slowly over the Appalachians, producing scattered/light showers over TN/NC through the afternoon. Cells will move northeast at 15-25kts. Expect mostly low-VFR conditions under a SCT/BKN040-060 deck with VFR conditions over AL/S GA. Surface winds will be mostly west at 10-15kts with gusts up to 25kts. Flight Hazards: LGT-MOD Turbulence above FL240 over all of ZTL and below 150 over GA and the Carolinas. Also, LGT-MOD Rime Icing from 090-FL200 over TN/VA/NC. Altimeters will remain below 29.92ins over all ZTL. CIGS/VIS below 050/5SM are expected in ZTL Areas 1/2/3/7.

Restricted Area Convection: R2102...None. R3002...None. R3004...None.
FTUS80 KATL 251739
KATL 251737Z 2518/2624 27010G20KT P6SM BKN035
     FM252100 26015G25KT P6SM SCT040
     FM260000 27008KT P6SM FEW045
     FM260300 27005KT P6SM SKC
     FM261600 26007KT P6SM SCT250

REMARKS: NONE.

 

 

FTUS80 KCLT 251742 RRA
KCLT 251740Z 2518/2618 25012G19KT P6SM FEW022 SCT045
      TEMPO 2518/2522 4SM -SHRA BKN022
     FM252200 25011KT P6SM SCT050
     FM260200 24005KT P6SM SCT200
     FM261400 25008KT P6SM SCT250


REMARKS: NONE.

 

 

Go to KATL TAF TDA
Go to KATL TAF TDA

 

 

Go to KCLT TAF TDA
Go to KCLT TAF TDA

ATL Convective Gates Convective Gate Forecast CLT Convective Gates Convective Gate Forecast
Radar/PIREPs/Icing & Turbulence Airmets and Sigmets/CWAs

Weather Map